sensor_id;sensor_type;location;lat;lon;timestamp;P1;durP1;ratioP1;P2;durP2;ratioP2
66593;SDS011;53450;42.584;23.366;2023-02-28T00:00:36;251.87;;;20.47;;
66593;SDS011;53450;42.584;23.366;2023-02-28T00:03:02;291.20;;;19.00;;
66593;SDS011;53450;42.584;23.366;2023-02-28T00:05:28;190.97;;;16.63;;
66593;SDS011;53450;42.584;23.366;2023-02-28T00:08:18;157.83;;;17.10;;
66593;SDS011;53450;42.584;23.366;2023-02-28T00:10:44;156.60;;;16.60;;
66593;SDS011;53450;42.584;23.366;2023-02-28T00:13:10;154.87;;;16.70;;
66593;SDS011;53450;42.584;23.366;2023-02-28T00:15:36;87.37;;;16.63;;
66593;SDS011;53450;42.584;23.366;2023-02-28T00:18:02;43.57;;;17.87;;
66593;SDS011;53450;42.584;23.366;2023-02-28T00:20:28;45.70;;;18.50;;
66593;SDS011;53450;42.584;23.366;2023-02-28T00:22:54;43.83;;;17.77;;
66593;SDS011;53450;42.584;23.366;2023-02-28T00:25:22;95.87;;;27.60;;
66593;SDS011;53450;42.584;23.366;2023-02-28T00:27:49;44.97;;;17.73;;
66593;SDS011;53450;42.584;23.366;2023-02-28T00:30:16;129.93;;;34.80;;
66593;SDS011;53450;42.584;23.366;2023-02-28T00:32:43;68.43;;;22.37;;
66593;SDS011;53450;42.584;23.366;2023-02-28T00:35:09;82.47;;;24.00;;
66593;SDS011;53450;42.584;23.366;2023-02-28T00:37:36;47.00;;;16.37;;
66593;SDS011;53450;42.584;23.366;2023-02-28T00:40:04;28.33;;;15.63;;
66593;SDS011;53450;42.584;23.366;2023-02-28T00:42:31;22.43;;;13.97;;
66593;SDS011;53450;42.584;23.366;2023-02-28T00:44:58;37.37;;;16.17;;
66593;SDS011;53450;42.584;23.366;2023-02-28T00:47:23;36.93;;;14.10;;
66593;SDS011;53450;42.584;23.366;2023-02-28T00:49:49;26.27;;;12.13;;
66593;SDS011;53450;42.584;23.366;2023-02-28T00:52:14;41.57;;;16.17;;
66593;SDS011;53450;42.584;23.366;2023-02-28T00:54:40;29.53;;;14.60;;
66593;SDS011;53450;42.584;23.366;2023-02-28T00:57:06;24.07;;;13.53;;
66593;SDS011;53450;42.584;23.366;2023-02-28T00:59:32;20.73;;;11.10;;
66593;SDS011;53450;42.584;23.366;2023-02-28T01:01:58;22.10;;;12.53;;
66593;SDS011;53450;42.584;23.366;2023-02-28T01:04:23;27.03;;;14.93;;
66593;SDS011;53450;42.584;23.366;2023-02-28T01:06:49;260.03;;;15.70;;
66593;SDS011;53450;42.584;23.366;2023-02-28T01:09:15;176.67;;;16.03;;
66593;SDS011;53450;42.584;23.366;2023-02-28T01:11:41;43.97;;;18.60;;
66593;SDS011;53450;42.584;23.366;2023-02-28T01:14:12;50.27;;;20.00;;
66593;SDS011;53450;42.584;23.366;2023-02-28T01:16:39;45.80;;;18.13;;
66593;SDS011;53450;42.584;23.366;2023-02-28T01:19:30;33.70;;;15.30;;
66593;SDS011;53450;42.584;23.366;2023-02-28T01:22:21;34.30;;;15.33;;
66593;SDS011;53450;42.584;23.366;2023-02-28T01:24:46;26.77;;;13.93;;
66593;SDS011;53450;42.584;23.366;2023-02-28T01:27:12;25.77;;;13.57;;
66593;SDS011;53450;42.584;23.366;2023-02-28T01:29:38;27.87;;;14.13;;
66593;SDS011;53450;42.584;23.366;2023-02-28T01:32:04;25.45;;;13.55;;
66593;SDS011;53450;42.584;23.366;2023-02-28T01:34:30;29.20;;;15.83;;
66593;SDS011;53450;42.584;23.366;2023-02-28T01:36:55;33.70;;;15.20;;
66593;SDS011;53450;42.584;23.366;2023-02-28T01:39:24;30.03;;;14.77;;
66593;SDS011;53450;42.584;23.366;2023-02-28T01:41:50;27.50;;;13.87;;
66593;SDS011;53450;42.584;23.366;2023-02-28T01:47:20;26.30;;;13.33;;
66593;SDS011;53450;42.584;23.366;2023-02-28T01:49:48;22.47;;;12.23;;
66593;SDS011;53450;42.584;23.366;2023-02-28T01:52:16;20.17;;;11.77;;
66593;SDS011;53450;42.584;23.366;2023-02-28T01:54:51;19.90;;;10.90;;
66593;SDS011;53450;42.584;23.366;2023-02-28T01:57:20;19.90;;;11.80;;
66593;SDS011;53450;42.584;23.366;2023-02-28T02:02:45;20.80;;;11.73;;
66593;SDS011;53450;42.584;23.366;2023-02-28T02:05:15;20.90;;;10.73;;
66593;SDS011;53450;42.584;23.366;2023-02-28T02:07:53;19.53;;;10.97;;
66593;SDS011;53450;42.584;23.366;2023-02-28T02:10:53;17.83;;;10.80;;
66593;SDS011;53450;42.584;23.366;2023-02-28T02:33:05;13.50;;;8.13;;
66593;SDS011;53450;42.584;23.366;2023-02-28T02:35:41;14.03;;;6.83;;
66593;SDS011;53450;42.584;23.366;2023-02-28T02:48:46;11.17;;;4.70;;
66593;SDS011;53450;42.584;23.366;2023-02-28T02:51:14;14.40;;;5.93;;
66593;SDS011;53450;42.584;23.366;2023-02-28T02:53:46;11.67;;;5.13;;
66593;SDS011;53450;42.584;23.366;2023-02-28T02:56:15;9.80;;;3.92;;
66593;SDS011;53450;42.584;23.366;2023-02-28T02:59:10;11.07;;;4.60;;
66593;SDS011;53450;42.584;23.366;2023-02-28T03:02:04;13.10;;;6.20;;
66593;SDS011;53450;42.584;23.366;2023-02-28T03:04:38;23.50;;;8.77;;
66593;SDS011;53450;42.584;23.366;2023-02-28T03:07:08;23.27;;;9.13;;
66593;SDS011;53450;42.584;23.366;2023-02-28T03:09:34;14.10;;;8.60;;
66593;SDS011;53450;42.584;23.366;2023-02-28T03:12:06;14.98;;;8.45;;
66593;SDS011;53450;42.584;23.366;2023-02-28T03:20:17;12.43;;;7.10;;
66593;SDS011;53450;42.584;23.366;2023-02-28T03:23:03;13.37;;;7.90;;
66593;SDS011;53450;42.584;23.366;2023-02-28T03:25:59;17.03;;;7.43;;
66593;SDS011;53450;42.584;23.366;2023-02-28T03:31:41;22.17;;;10.30;;
66593;SDS011;53450;42.584;23.366;2023-02-28T03:34:19;22.43;;;12.60;;
66593;SDS011;53450;42.584;23.366;2023-02-28T03:36:51;26.43;;;11.37;;
66593;SDS011;53450;42.584;23.366;2023-02-28T03:39:22;27.40;;;14.48;;
66593;SDS011;53450;42.584;23.366;2023-02-28T03:42:20;43.23;;;22.23;;
66593;SDS011;53450;42.584;23.366;2023-02-28T03:44:50;24.77;;;13.30;;
66593;SDS011;53450;42.584;23.366;2023-02-28T03:50:37;18.95;;;8.63;;
66593;SDS011;53450;42.584;23.366;2023-02-28T03:53:21;12.87;;;5.73;;
66593;SDS011;53450;42.584;23.366;2023-02-28T03:56:05;9.63;;;5.33;;
66593;SDS011;53450;42.584;23.366;2023-02-28T03:58:39;14.77;;;4.50;;
66593;SDS011;53450;42.584;23.366;2023-02-28T04:04:25;18.83;;;3.43;;
66593;SDS011;53450;42.584;23.366;2023-02-28T04:07:16;12.17;;;3.87;;
66593;SDS011;53450;42.584;23.366;2023-02-28T04:09:43;22.97;;;4.07;;
66593;SDS011;53450;42.584;23.366;2023-02-28T04:12:08;20.27;;;3.97;;
66593;SDS011;53450;42.584;23.366;2023-02-28T04:14:35;11.00;;;3.27;;
66593;SDS011;53450;42.584;23.366;2023-02-28T04:17:01;11.00;;;2.97;;
66593;SDS011;53450;42.584;23.366;2023-02-28T04:19:27;11.10;;;3.03;;
66593;SDS011;53450;42.584;23.366;2023-02-28T04:21:53;18.63;;;2.50;;
66593;SDS011;53450;42.584;23.366;2023-02-28T04:24:20;9.93;;;4.70;;
66593;SDS011;53450;42.584;23.366;2023-02-28T04:26:48;10.03;;;2.30;;
66593;SDS011;53450;42.584;23.366;2023-02-28T04:29:26;13.67;;;2.13;;
66593;SDS011;53450;42.584;23.366;2023-02-28T04:31:54;6.33;;;2.13;;
66593;SDS011;53450;42.584;23.366;2023-02-28T04:34:23;6.37;;;2.10;;
66593;SDS011;53450;42.584;23.366;2023-02-28T04:36:49;3.73;;;2.40;;
66593;SDS011;53450;42.584;23.366;2023-02-28T04:39:19;7.43;;;2.60;;
66593;SDS011;53450;42.584;23.366;2023-02-28T04:41:45;9.53;;;2.87;;
66593;SDS011;53450;42.584;23.366;2023-02-28T04:44:11;8.27;;;3.27;;
66593;SDS011;53450;42.584;23.366;2023-02-28T04:46:37;14.70;;;2.90;;
66593;SDS011;53450;42.584;23.366;2023-02-28T04:49:03;7.70;;;3.73;;
66593;SDS011;53450;42.584;23.366;2023-02-28T04:51:53;13.23;;;3.80;;
66593;SDS011;53450;42.584;23.366;2023-02-28T04:54:19;12.43;;;4.70;;
66593;SDS011;53450;42.584;23.366;2023-02-28T04:56:45;20.30;;;5.83;;
66593;SDS011;53450;42.584;23.366;2023-02-28T04:59:10;26.53;;;7.57;;
66593;SDS011;53450;42.584;23.366;2023-02-28T05:01:36;31.53;;;7.47;;
66593;SDS011;53450;42.584;23.366;2023-02-28T05:04:03;24.70;;;7.83;;
66593;SDS011;53450;42.584;23.366;2023-02-28T05:06:32;33.30;;;9.77;;
66593;SDS011;53450;42.584;23.366;2023-02-28T05:08:58;28.10;;;9.80;;
66593;SDS011;53450;42.584;23.366;2023-02-28T05:11:25;31.20;;;9.27;;
66593;SDS011;53450;42.584;23.366;2023-02-28T05:14:01;49.33;;;9.10;;
66593;SDS011;53450;42.584;23.366;2023-02-28T05:16:28;25.73;;;9.50;;
66593;SDS011;53450;42.584;23.366;2023-02-28T05:18:54;42.63;;;9.90;;
66593;SDS011;53450;42.584;23.366;2023-02-28T05:23:49;40.23;;;10.33;;
66593;SDS011;53450;42.584;23.366;2023-02-28T05:26:14;38.37;;;9.33;;
66593;SDS011;53450;42.584;23.366;2023-02-28T05:28:40;29.33;;;9.73;;
66593;SDS011;53450;42.584;23.366;2023-02-28T05:31:05;40.73;;;11.43;;
66593;SDS011;53450;42.584;23.366;2023-02-28T05:33:31;39.57;;;11.10;;
66593;SDS011;53450;42.584;23.366;2023-02-28T05:36:21;47.13;;;11.00;;
66593;SDS011;53450;42.584;23.366;2023-02-28T05:38:49;37.07;;;10.70;;
66593;SDS011;53450;42.584;23.366;2023-02-28T05:41:15;40.33;;;11.00;;
66593;SDS011;53450;42.584;23.366;2023-02-28T05:43:41;35.57;;;11.77;;
66593;SDS011;53450;42.584;23.366;2023-02-28T05:46:07;48.27;;;11.43;;
66593;SDS011;53450;42.584;23.366;2023-02-28T05:48:35;31.83;;;10.90;;
66593;SDS011;53450;42.584;23.366;2023-02-28T05:51:01;37.60;;;12.07;;
66593;SDS011;53450;42.584;23.366;2023-02-28T05:53:28;38.43;;;12.57;;
66593;SDS011;53450;42.584;23.366;2023-02-28T05:55:54;47.13;;;12.77;;
66593;SDS011;53450;42.584;23.366;2023-02-28T05:58:20;34.20;;;11.50;;
66593;SDS011;53450;42.584;23.366;2023-02-28T06:00:46;24.73;;;10.17;;
66593;SDS011;53450;42.584;23.366;2023-02-28T06:03:13;33.13;;;13.07;;
66593;SDS011;53450;42.584;23.366;2023-02-28T06:05:38;32.58;;;11.55;;
66593;SDS011;53450;42.584;23.366;2023-02-28T06:08:04;28.52;;;12.52;;
66593;SDS011;53450;42.584;23.366;2023-02-28T06:10:38;32.00;;;12.23;;
66593;SDS011;53450;42.584;23.366;2023-02-28T06:13:03;34.03;;;12.65;;
66593;SDS011;53450;42.584;23.366;2023-02-28T06:15:29;39.57;;;11.90;;
66593;SDS011;53450;42.584;23.366;2023-02-28T06:18:20;36.50;;;12.13;;
66593;SDS011;53450;42.584;23.366;2023-02-28T06:21:12;34.90;;;11.35;;
66593;SDS011;53450;42.584;23.366;2023-02-28T06:23:38;23.00;;;11.75;;
66593;SDS011;53450;42.584;23.366;2023-02-28T06:26:04;32.22;;;11.63;;
66593;SDS011;53450;42.584;23.366;2023-02-28T06:28:30;27.10;;;11.30;;
66593;SDS011;53450;42.584;23.366;2023-02-28T06:30:56;28.25;;;10.07;;
66593;SDS011;53450;42.584;23.366;2023-02-28T06:33:21;39.55;;;12.05;;
66593;SDS011;53450;42.584;23.366;2023-02-28T06:35:49;36.30;;;12.27;;
66593;SDS011;53450;42.584;23.366;2023-02-28T06:38:20;37.72;;;12.45;;
66593;SDS011;53450;42.584;23.366;2023-02-28T06:40:52;30.35;;;12.05;;
66593;SDS011;53450;42.584;23.366;2023-02-28T06:43:19;48.65;;;11.25;;
66593;SDS011;53450;42.584;23.366;2023-02-28T06:45:45;35.95;;;11.50;;
66593;SDS011;53450;42.584;23.366;2023-02-28T06:48:10;31.83;;;10.25;;
66593;SDS011;53450;42.584;23.366;2023-02-28T06:50:36;24.33;;;11.23;;
66593;SDS011;53450;42.584;23.366;2023-02-28T06:53:27;28.63;;;10.50;;
66593;SDS011;53450;42.584;23.366;2023-02-28T06:55:53;31.52;;;12.07;;
66593;SDS011;53450;42.584;23.366;2023-02-28T06:58:19;15.07;;;8.33;;
66593;SDS011;53450;42.584;23.366;2023-02-28T07:00:45;23.50;;;11.13;;
66593;SDS011;53450;42.584;23.366;2023-02-28T07:03:11;25.80;;;10.88;;
66593;SDS011;53450;42.584;23.366;2023-02-28T07:05:38;30.70;;;11.05;;
66593;SDS011;53450;42.584;23.366;2023-02-28T07:08:04;22.20;;;10.27;;
66593;SDS011;53450;42.584;23.366;2023-02-28T07:10:31;34.22;;;11.90;;
66593;SDS011;53450;42.584;23.366;2023-02-28T07:12:58;34.90;;;12.00;;
66593;SDS011;53450;42.584;23.366;2023-02-28T07:15:24;38.67;;;12.30;;
66593;SDS011;53450;42.584;23.366;2023-02-28T07:18:14;29.95;;;10.85;;
66593;SDS011;53450;42.584;23.366;2023-02-28T07:20:40;39.85;;;12.77;;
66593;SDS011;53450;42.584;23.366;2023-02-28T07:23:06;30.95;;;10.77;;
66593;SDS011;53450;42.584;23.366;2023-02-28T07:25:31;20.75;;;9.40;;
66593;SDS011;53450;42.584;23.366;2023-02-28T07:27:57;33.58;;;10.25;;
66593;SDS011;53450;42.584;23.366;2023-02-28T07:30:25;22.90;;;10.00;;
66593;SDS011;53450;42.584;23.366;2023-02-28T07:32:50;29.52;;;11.88;;
66593;SDS011;53450;42.584;23.366;2023-02-28T07:35:16;30.98;;;10.18;;
66593;SDS011;53450;42.584;23.366;2023-02-28T07:37:42;22.50;;;10.13;;
66593;SDS011;53450;42.584;23.366;2023-02-28T07:40:08;36.13;;;11.45;;
66593;SDS011;53450;42.584;23.366;2023-02-28T07:42:39;25.88;;;12.45;;
66593;SDS011;53450;42.584;23.366;2023-02-28T07:45:07;13.68;;;6.78;;
66593;SDS011;53450;42.584;23.366;2023-02-28T07:47:39;26.45;;;9.57;;
66593;SDS011;53450;42.584;23.366;2023-02-28T07:50:07;21.67;;;10.10;;
66593;SDS011;53450;42.584;23.366;2023-02-28T07:52:35;23.90;;;10.80;;
66593;SDS011;53450;42.584;23.366;2023-02-28T07:55:01;30.80;;;9.48;;
66593;SDS011;53450;42.584;23.366;2023-02-28T07:57:27;18.13;;;8.32;;
66593;SDS011;53450;42.584;23.366;2023-02-28T07:59:53;27.67;;;9.50;;
66593;SDS011;53450;42.584;23.366;2023-02-28T08:02:18;25.65;;;9.90;;
66593;SDS011;53450;42.584;23.366;2023-02-28T08:04:44;28.30;;;12.52;;
66593;SDS011;53450;42.584;23.366;2023-02-28T08:07:12;25.50;;;11.73;;
66593;SDS011;53450;42.584;23.366;2023-02-28T08:09:39;26.80;;;9.55;;
66593;SDS011;53450;42.584;23.366;2023-02-28T08:12:06;30.85;;;10.20;;
66593;SDS011;53450;42.584;23.366;2023-02-28T08:14:33;27.58;;;10.80;;
66593;SDS011;53450;42.584;23.366;2023-02-28T08:16:59;27.73;;;10.95;;
66593;SDS011;53450;42.584;23.366;2023-02-28T08:19:27;18.52;;;9.35;;
66593;SDS011;53450;42.584;23.366;2023-02-28T08:21:53;36.53;;;11.85;;
66593;SDS011;53450;42.584;23.366;2023-02-28T08:24:19;28.23;;;9.95;;
66593;SDS011;53450;42.584;23.366;2023-02-28T08:26:44;21.05;;;9.80;;
66593;SDS011;53450;42.584;23.366;2023-02-28T08:29:10;30.45;;;9.93;;
66593;SDS011;53450;42.584;23.366;2023-02-28T08:32:01;20.70;;;9.80;;
66593;SDS011;53450;42.584;23.366;2023-02-28T08:34:27;31.85;;;10.45;;
66593;SDS011;53450;42.584;23.366;2023-02-28T08:36:52;22.88;;;8.95;;
66593;SDS011;53450;42.584;23.366;2023-02-28T08:39:18;26.25;;;10.45;;
66593;SDS011;53450;42.584;23.366;2023-02-28T08:41:45;27.83;;;9.73;;
66593;SDS011;53450;42.584;23.366;2023-02-28T08:44:10;17.33;;;8.13;;
66593;SDS011;53450;42.584;23.366;2023-02-28T08:46:36;28.73;;;11.00;;
66593;SDS011;53450;42.584;23.366;2023-02-28T08:49:02;26.35;;;10.60;;
66593;SDS011;53450;42.584;23.366;2023-02-28T08:51:28;29.50;;;11.90;;
66593;SDS011;53450;42.584;23.366;2023-02-28T08:53:58;20.65;;;8.90;;
66593;SDS011;53450;42.584;23.366;2023-02-28T08:56:25;26.50;;;11.15;;
66593;SDS011;53450;42.584;23.366;2023-02-28T08:58:53;22.10;;;10.65;;
66593;SDS011;53450;42.584;23.366;2023-02-28T09:01:25;24.98;;;10.57;;
66593;SDS011;53450;42.584;23.366;2023-02-28T09:03:55;24.27;;;8.50;;
66593;SDS011;53450;42.584;23.366;2023-02-28T09:06:23;21.10;;;8.65;;
66593;SDS011;53450;42.584;23.366;2023-02-28T09:08:50;27.02;;;9.77;;
66593;SDS011;53450;42.584;23.366;2023-02-28T09:11:16;26.98;;;9.90;;
66593;SDS011;53450;42.584;23.366;2023-02-28T09:13:42;21.02;;;9.30;;
66593;SDS011;53450;42.584;23.366;2023-02-28T09:16:08;26.65;;;11.50;;
66593;SDS011;53450;42.584;23.366;2023-02-28T09:18:37;23.33;;;10.52;;
66593;SDS011;53450;42.584;23.366;2023-02-28T09:21:04;26.40;;;11.10;;
66593;SDS011;53450;42.584;23.366;2023-02-28T09:23:34;38.53;;;12.00;;
66593;SDS011;53450;42.584;23.366;2023-02-28T09:26:00;23.15;;;11.18;;
66593;SDS011;53450;42.584;23.366;2023-02-28T09:28:26;28.67;;;13.68;;
66593;SDS011;53450;42.584;23.366;2023-02-28T09:30:52;31.27;;;10.90;;
66593;SDS011;53450;42.584;23.366;2023-02-28T09:33:21;22.92;;;9.48;;
66593;SDS011;53450;42.584;23.366;2023-02-28T09:35:48;29.73;;;10.93;;
66593;SDS011;53450;42.584;23.366;2023-02-28T09:38:15;24.83;;;10.90;;
66593;SDS011;53450;42.584;23.366;2023-02-28T09:40:51;22.55;;;9.95;;
66593;SDS011;53450;42.584;23.366;2023-02-28T09:43:20;36.53;;;10.30;;
66593;SDS011;53450;42.584;23.366;2023-02-28T09:45:50;26.75;;;9.95;;
66593;SDS011;53450;42.584;23.366;2023-02-28T09:48:25;25.30;;;10.55;;
66593;SDS011;53450;42.584;23.366;2023-02-28T09:51:05;17.00;;;7.97;;
66593;SDS011;53450;42.584;23.366;2023-02-28T09:53:37;28.85;;;9.80;;
66593;SDS011;53450;42.584;23.366;2023-02-28T10:01:24;37.70;;;11.45;;
66593;SDS011;53450;42.584;23.366;2023-02-28T10:03:56;20.30;;;9.35;;
66593;SDS011;53450;42.584;23.366;2023-02-28T10:06:28;39.45;;;11.95;;
66593;SDS011;53450;42.584;23.366;2023-02-28T10:09:02;23.58;;;10.77;;
66593;SDS011;53450;42.584;23.366;2023-02-28T10:11:32;32.00;;;11.73;;
66593;SDS011;53450;42.584;23.366;2023-02-28T10:14:01;35.95;;;10.18;;
66593;SDS011;53450;42.584;23.366;2023-02-28T10:16:33;30.00;;;10.70;;
66593;SDS011;53450;42.584;23.366;2023-02-28T10:21:55;19.85;;;10.13;;
66593;SDS011;53450;42.584;23.366;2023-02-28T10:29:54;24.15;;;9.73;;
66593;SDS011;53450;42.584;23.366;2023-02-28T10:32:29;24.05;;;9.70;;
66593;SDS011;53450;42.584;23.366;2023-02-28T10:34:59;26.85;;;10.07;;
66593;SDS011;53450;42.584;23.366;2023-02-28T10:37:42;26.90;;;11.18;;
66593;SDS011;53450;42.584;23.366;2023-02-28T10:45:29;21.25;;;7.75;;
66593;SDS011;53450;42.584;23.366;2023-02-28T10:48:02;36.35;;;7.38;;
66593;SDS011;53450;42.584;23.366;2023-02-28T10:56:45;17.92;;;8.65;;
66593;SDS011;53450;42.584;23.366;2023-02-28T10:59:51;25.52;;;10.27;;
66593;SDS011;53450;42.584;23.366;2023-02-28T11:01:51;26.77;;;9.15;;
66593;SDS011;53450;42.584;23.366;2023-02-28T11:06:46;22.63;;;9.85;;
66593;SDS011;53450;42.584;23.366;2023-02-28T11:09:23;25.95;;;8.93;;
66593;SDS011;53450;42.584;23.366;2023-02-28T11:11:54;33.67;;;9.70;;
66593;SDS011;53450;42.584;23.366;2023-02-28T11:14:21;23.65;;;9.55;;
66593;SDS011;53450;42.584;23.366;2023-02-28T11:16:49;22.58;;;8.80;;
66593;SDS011;53450;42.584;23.366;2023-02-28T11:19:37;17.80;;;7.97;;
66593;SDS011;53450;42.584;23.366;2023-02-28T11:22:05;28.00;;;10.35;;
66593;SDS011;53450;42.584;23.366;2023-02-28T11:24:33;23.20;;;10.88;;
66593;SDS011;53450;42.584;23.366;2023-02-28T11:27:02;27.95;;;10.68;;
66593;SDS011;53450;42.584;23.366;2023-02-28T11:29:29;34.50;;;10.32;;
66593;SDS011;53450;42.584;23.366;2023-02-28T11:34:45;27.90;;;11.18;;
66593;SDS011;53450;42.584;23.366;2023-02-28T11:37:24;23.90;;;9.80;;
66593;SDS011;53450;42.584;23.366;2023-02-28T11:39:52;24.10;;;10.10;;
66593;SDS011;53450;42.584;23.366;2023-02-28T11:47:44;21.10;;;9.25;;
66593;SDS011;53450;42.584;23.366;2023-02-28T11:53:10;23.45;;;10.95;;
66593;SDS011;53450;42.584;23.366;2023-02-28T11:56:28;23.42;;;9.38;;
66593;SDS011;53450;42.584;23.366;2023-02-28T12:01:38;28.63;;;9.02;;
66593;SDS011;53450;42.584;23.366;2023-02-28T12:08:09;23.30;;;9.45;;
66593;SDS011;53450;42.584;23.366;2023-02-28T12:26:02;34.35;;;11.70;;
66593;SDS011;53450;42.584;23.366;2023-02-28T12:28:46;35.13;;;13.45;;
66593;SDS011;53450;42.584;23.366;2023-02-28T12:31:35;31.92;;;12.55;;
66593;SDS011;53450;42.584;23.366;2023-02-28T12:34:12;33.28;;;13.32;;
66593;SDS011;53450;42.584;23.366;2023-02-28T12:36:43;28.23;;;14.18;;
66593;SDS011;53450;42.584;23.366;2023-02-28T12:39:13;42.78;;;18.35;;
66593;SDS011;53450;42.584;23.366;2023-02-28T12:44:14;35.45;;;13.27;;
66593;SDS011;53450;42.584;23.366;2023-02-28T12:46:46;42.95;;;13.95;;
66593;SDS011;53450;42.584;23.366;2023-02-28T12:49:17;28.92;;;12.43;;
66593;SDS011;53450;42.584;23.366;2023-02-28T12:51:47;30.40;;;16.40;;
66593;SDS011;53450;42.584;23.366;2023-02-28T12:54:25;34.00;;;13.20;;
66593;SDS011;53450;42.584;23.366;2023-02-28T12:57:19;26.58;;;13.25;;
66593;SDS011;53450;42.584;23.366;2023-02-28T12:59:59;39.38;;;14.10;;
66593;SDS011;53450;42.584;23.366;2023-02-28T13:06:00;32.30;;;13.18;;
66593;SDS011;53450;42.584;23.366;2023-02-28T13:11:30;30.80;;;13.00;;
66593;SDS011;53450;42.584;23.366;2023-02-28T13:14:06;26.13;;;12.45;;
66593;SDS011;53450;42.584;23.366;2023-02-28T13:19:38;22.27;;;11.25;;
66593;SDS011;53450;42.584;23.366;2023-02-28T13:22:16;23.90;;;10.65;;
66593;SDS011;53450;42.584;23.366;2023-02-28T13:24:54;27.30;;;10.35;;
66593;SDS011;53450;42.584;23.366;2023-02-28T13:27:46;29.15;;;11.95;;
66593;SDS011;53450;42.584;23.366;2023-02-28T13:38:44;27.73;;;12.30;;
66593;SDS011;53450;42.584;23.366;2023-02-28T14:05:25;48.58;;;18.20;;
66593;SDS011;53450;42.584;23.366;2023-02-28T14:07:59;35.88;;;15.45;;
66593;SDS011;53450;42.584;23.366;2023-02-28T14:10:51;23.95;;;11.63;;
66593;SDS011;53450;42.584;23.366;2023-02-28T14:13:42;26.05;;;14.02;;
66593;SDS011;53450;42.584;23.366;2023-02-28T14:16:10;33.45;;;12.70;;
66593;SDS011;53450;42.584;23.366;2023-02-28T14:19:22;30.10;;;13.70;;
66593;SDS011;53450;42.584;23.366;2023-02-28T14:21:34;29.27;;;10.90;;
66593;SDS011;53450;42.584;23.366;2023-02-28T14:27:03;19.08;;;9.48;;
66593;SDS011;53450;42.584;23.366;2023-02-28T14:32:46;15.68;;;8.75;;
66593;SDS011;53450;42.584;23.366;2023-02-28T14:37:51;29.17;;;9.70;;
66593;SDS011;53450;42.584;23.366;2023-02-28T14:40:23;29.55;;;9.85;;
66593;SDS011;53450;42.584;23.366;2023-02-28T14:42:55;29.52;;;8.38;;
66593;SDS011;53450;42.584;23.366;2023-02-28T14:45:23;19.60;;;7.80;;
66593;SDS011;53450;42.584;23.366;2023-02-28T14:47:49;23.23;;;9.77;;
66593;SDS011;53450;42.584;23.366;2023-02-28T14:50:26;32.67;;;13.15;;
66593;SDS011;53450;42.584;23.366;2023-02-28T14:52:56;92.85;;;46.03;;
66593;SDS011;53450;42.584;23.366;2023-02-28T14:55:24;22.80;;;9.45;;
66593;SDS011;53450;42.584;23.366;2023-02-28T15:00:59;28.40;;;9.75;;
66593;SDS011;53450;42.584;23.366;2023-02-28T15:06:11;22.83;;;9.48;;
66593;SDS011;53450;42.584;23.366;2023-02-28T15:08:39;21.17;;;7.47;;
66593;SDS011;53450;42.584;23.366;2023-02-28T15:11:06;17.95;;;7.10;;
66593;SDS011;53450;42.584;23.366;2023-02-28T15:13:36;25.45;;;7.90;;
66593;SDS011;53450;42.584;23.366;2023-02-28T15:16:13;26.05;;;9.68;;
66593;SDS011;53450;42.584;23.366;2023-02-28T15:18:50;22.08;;;7.35;;
66593;SDS011;53450;42.584;23.366;2023-02-28T15:24:00;26.33;;;8.98;;
66593;SDS011;53450;42.584;23.366;2023-02-28T15:26:36;36.30;;;12.02;;
66593;SDS011;53450;42.584;23.366;2023-02-28T15:29:12;16.77;;;7.20;;
66593;SDS011;53450;42.584;23.366;2023-02-28T15:31:44;23.70;;;11.20;;
66593;SDS011;53450;42.584;23.366;2023-02-28T15:34:20;19.10;;;9.27;;
66593;SDS011;53450;42.584;23.366;2023-02-28T15:36:59;17.92;;;7.68;;
66593;SDS011;53450;42.584;23.366;2023-02-28T15:39:25;24.85;;;9.18;;
66593;SDS011;53450;42.584;23.366;2023-02-28T15:41:52;24.67;;;12.55;;
66593;SDS011;53450;42.584;23.366;2023-02-28T15:45:00;14.82;;;8.68;;
66593;SDS011;53450;42.584;23.366;2023-02-28T15:47:27;25.45;;;10.57;;
66593;SDS011;53450;42.584;23.366;2023-02-28T15:49:56;41.00;;;18.08;;
66593;SDS011;53450;42.584;23.366;2023-02-28T15:54:58;47.80;;;25.52;;
66593;SDS011;53450;42.584;23.366;2023-02-28T15:57:25;32.92;;;12.02;;
66593;SDS011;53450;42.584;23.366;2023-02-28T15:59:55;40.63;;;20.33;;
66593;SDS011;53450;42.584;23.366;2023-02-28T16:02:29;30.35;;;18.52;;
66593;SDS011;53450;42.584;23.366;2023-02-28T16:07:33;22.52;;;11.20;;
66593;SDS011;53450;42.584;23.366;2023-02-28T16:10:00;22.20;;;11.07;;
66593;SDS011;53450;42.584;23.366;2023-02-28T16:12:27;20.05;;;10.45;;
66593;SDS011;53450;42.584;23.366;2023-02-28T16:14:55;34.88;;;12.60;;
66593;SDS011;53450;42.584;23.366;2023-02-28T16:17:24;23.20;;;13.48;;
66593;SDS011;53450;42.584;23.366;2023-02-28T16:19:52;27.73;;;13.73;;
66593;SDS011;53450;42.584;23.366;2023-02-28T16:22:19;28.40;;;13.70;;
66593;SDS011;53450;42.584;23.366;2023-02-28T16:24:45;23.33;;;10.85;;
66593;SDS011;53450;42.584;23.366;2023-02-28T16:27:21;18.23;;;11.43;;
66593;SDS011;53450;42.584;23.366;2023-02-28T16:29:55;28.13;;;15.05;;
66593;SDS011;53450;42.584;23.366;2023-02-28T16:32:20;27.48;;;14.60;;
66593;SDS011;53450;42.584;23.366;2023-02-28T16:34:46;23.63;;;12.45;;
66593;SDS011;53450;42.584;23.366;2023-02-28T16:37:20;18.63;;;12.38;;
66593;SDS011;53450;42.584;23.366;2023-02-28T16:39:46;22.58;;;12.05;;
66593;SDS011;53450;42.584;23.366;2023-02-28T16:42:15;24.60;;;11.20;;
66593;SDS011;53450;42.584;23.366;2023-02-28T16:44:45;19.23;;;11.93;;
66593;SDS011;53450;42.584;23.366;2023-02-28T16:47:11;21.08;;;10.10;;
66593;SDS011;53450;42.584;23.366;2023-02-28T16:49:37;15.27;;;10.65;;
66593;SDS011;53450;42.584;23.366;2023-02-28T16:52:02;18.20;;;11.80;;
66593;SDS011;53450;42.584;23.366;2023-02-28T16:54:28;23.92;;;14.00;;
66593;SDS011;53450;42.584;23.366;2023-02-28T16:56:53;19.48;;;11.82;;
66593;SDS011;53450;42.584;23.366;2023-02-28T16:59:21;15.60;;;8.80;;
66593;SDS011;53450;42.584;23.366;2023-02-28T17:01:49;31.98;;;18.08;;
66593;SDS011;53450;42.584;23.366;2023-02-28T17:04:15;23.48;;;16.17;;
66593;SDS011;53450;42.584;23.366;2023-02-28T17:06:41;13.47;;;7.23;;
66593;SDS011;53450;42.584;23.366;2023-02-28T17:09:15;15.23;;;9.68;;
66593;SDS011;53450;42.584;23.366;2023-02-28T17:11:45;20.55;;;10.60;;
66593;SDS011;53450;42.584;23.366;2023-02-28T17:14:11;15.77;;;10.40;;
66593;SDS011;53450;42.584;23.366;2023-02-28T17:16:38;21.10;;;10.85;;
66593;SDS011;53450;42.584;23.366;2023-02-28T17:19:13;16.10;;;9.88;;
66593;SDS011;53450;42.584;23.366;2023-02-28T17:21:40;9.63;;;6.13;;
66593;SDS011;53450;42.584;23.366;2023-02-28T17:24:09;10.40;;;7.03;;
66593;SDS011;53450;42.584;23.366;2023-02-28T17:26:38;11.23;;;6.47;;
66593;SDS011;53450;42.584;23.366;2023-02-28T17:29:05;8.90;;;6.80;;
66593;SDS011;53450;42.584;23.366;2023-02-28T17:31:43;9.05;;;5.40;;
66593;SDS011;53450;42.584;23.366;2023-02-28T17:34:09;11.80;;;6.80;;